Time;durP1;ratioP1;P1;durP2;ratioP2;P2;SDS_P1;SDS_P2;PMS_P1;PMS_P2;Temp;Humidity;BMP_temperature;BMP_pressure;BME280_temperature;BME280_humidity;BME280_pressure;Samples;Min_cycle;Max_cycle;Signal;HPM_P1;HPM_P2
2021/12/19 00:01:37;;;;;;;4.03;2.53;;;;;;;0.00;78.34;95237.31;5030414;28;20671;-71
2021/12/19 00:04:19;;;;;;;4.55;2.60;;;;;;;0.02;78.23;95239.69;5022081;28;20208;-72
2021/12/19 00:09:31;;;;;;;12.63;2.67;;;;;;;0.04;78.40;95237.59;5029931;28;20219;-71
2021/12/19 00:12:00;;;;;;;6.57;2.83;;;;;;;-0.13;78.06;95227.78;5017762;28;20258;-71
2021/12/19 00:14:28;;;;;;;4.43;2.45;;;;;;;-0.23;78.49;95232.19;5015734;28;20279;-71
2021/12/19 00:16:55;;;;;;;3.60;2.35;;;;;;;-0.23;78.92;95226.84;5016755;28;20212;-71
2021/12/19 00:19:23;;;;;;;5.32;2.38;;;;;;;-0.26;79.00;95232.66;5015499;28;20272;-71
2021/12/19 00:21:51;;;;;;;2.95;1.75;;;;;;;-0.30;79.28;95232.38;5016153;28;20657;-71
2021/12/19 00:24:20;;;;;;;4.25;1.77;;;;;;;-0.27;79.54;95223.88;5011393;28;20208;-71
2021/12/19 00:26:47;;;;;;;4.75;2.97;;;;;;;-0.37;79.63;95221.06;5011409;28;20209;-71
2021/12/19 00:29:16;;;;;;;4.00;1.58;;;;;;;-0.40;79.50;95224.22;5010683;28;20723;-71
2021/12/19 00:31:45;;;;;;;3.10;1.55;;;;;;;-0.36;79.36;95222.69;5011360;28;20275;-71
2021/12/19 00:34:13;;;;;;;2.45;1.67;;;;;;;-0.47;79.99;95215.63;5010825;28;20200;-71
2021/12/19 00:36:40;;;;;;;3.30;2.20;;;;;;;-0.58;80.52;95219.19;5011394;28;20213;-72
2021/12/19 00:39:08;;;;;;;2.60;1.88;;;;;;;-0.65;80.63;95213.19;5011131;28;20205;-72
2021/12/19 00:41:35;;;;;;;5.60;2.80;;;;;;;-0.68;81.13;95213.72;5010785;28;20770;-72
2021/12/19 00:44:10;;;;;;;2.35;2.00;;;;;;;-0.69;80.99;95220.88;5010842;28;20652;-73
2021/12/19 00:46:48;;;;;;;2.97;2.30;;;;;;;-0.72;81.37;95214.19;5011003;28;20228;-72
2021/12/19 00:49:15;;;;;;;3.70;2.63;;;;;;;-0.78;81.40;95220.47;5016303;28;20216;-72
2021/12/19 00:51:43;;;;;;;6.47;2.85;;;;;;;-0.75;81.76;95219.19;5017086;28;20278;-72
2021/12/19 00:54:10;;;;;;;3.33;2.33;;;;;;;-0.78;81.46;95212.47;5010945;28;20247;-72
2021/12/19 00:56:39;;;;;;;3.95;2.30;;;;;;;-0.83;81.82;95201.78;5011116;28;20215;-72
2021/12/19 00:59:07;;;;;;;3.60;1.77;;;;;;;-0.87;81.49;95198.00;5010909;28;20209;-71
2021/12/19 01:01:35;;;;;;;3.63;2.53;;;;;;;-0.91;81.57;95201.38;5010468;28;20208;-72
2021/12/19 01:04:05;;;;;;;2.30;2.08;;;;;;;-1.01;82.01;95185.25;5011150;28;20225;-72
2021/12/19 01:06:33;;;;;;;3.38;2.65;;;;;;;-0.93;81.96;95183.00;5011004;28;20205;-72
2021/12/19 01:09:00;;;;;;;4.18;1.90;;;;;;;-0.91;81.88;95183.56;5010943;28;20208;-71
2021/12/19 01:11:27;;;;;;;2.90;2.17;;;;;;;-0.98;82.12;95182.94;5010487;28;20228;-71
2021/12/19 01:13:55;;;;;;;4.45;2.55;;;;;;;-1.01;82.37;95191.38;5009961;28;20209;-71
2021/12/19 01:16:23;;;;;;;3.30;2.45;;;;;;;-0.97;82.63;95184.53;5013512;28;20204;-71
2021/12/19 01:18:50;;;;;;;5.60;2.92;;;;;;;-0.82;82.25;95184.75;5020569;28;20216;-71
2021/12/19 01:21:20;;;;;;;4.03;2.20;;;;;;;-0.87;81.99;95183.88;5016128;28;20277;-71
2021/12/19 01:23:47;;;;;;;2.78;1.95;;;;;;;-0.85;82.42;95177.28;5010329;28;20217;-71
2021/12/19 01:26:14;;;;;;;3.95;2.67;;;;;;;-0.83;82.34;95179.72;5010361;28;20209;-71
2021/12/19 01:28:43;;;;;;;6.28;2.88;;;;;;;-0.77;82.10;95179.53;5010088;28;20205;-71
2021/12/19 01:31:10;;;;;;;7.00;2.75;;;;;;;-0.69;81.84;95180.19;5009974;28;20687;-71
2021/12/19 01:33:38;;;;;;;4.68;2.25;;;;;;;-0.65;81.63;95165.31;5010833;28;20209;-72
2021/12/19 01:36:06;;;;;;;6.30;2.60;;;;;;;-0.68;81.68;95171.16;5010482;28;20407;-71
2021/12/19 01:38:35;;;;;;;3.83;2.03;;;;;;;-0.75;81.66;95156.16;5010319;28;20690;-72
2021/12/19 01:41:03;;;;;;;3.90;2.45;;;;;;;-0.70;81.22;95157.28;5023535;28;20241;-72
2021/12/19 01:43:31;;;;;;;4.32;2.72;;;;;;;-0.75;81.35;95161.47;5010207;28;20213;-72
2021/12/19 01:45:59;;;;;;;5.32;2.85;;;;;;;-0.85;81.68;95156.00;5010632;28;20233;-71
2021/12/19 01:48:26;;;;;;;2.75;2.10;;;;;;;-0.89;81.89;95149.56;5009656;28;20641;-72
2021/12/19 01:50:54;;;;;;;3.25;2.15;;;;;;;-0.85;81.20;95150.69;5022294;28;20624;-72
2021/12/19 01:53:22;;;;;;;3.67;2.17;;;;;;;-0.88;81.50;95156.50;5010356;28;20617;-72
2021/12/19 01:55:51;;;;;;;2.42;1.48;;;;;;;-0.73;81.38;95159.38;5010104;28;20572;-72
2021/12/19 01:58:19;;;;;;;3.45;1.98;;;;;;;-0.80;81.53;95152.59;5022934;28;20540;-71
2021/12/19 02:00:50;;;;;;;6.35;2.85;;;;;;;-0.65;81.47;95136.06;5013389;28;20677;-71
2021/12/19 02:03:18;;;;;;;3.30;1.95;;;;;;;-0.62;81.02;95136.38;5013989;28;20260;-71
2021/12/19 02:05:45;;;;;;;3.67;2.50;;;;;;;-0.57;81.05;95135.66;5014084;28;20220;-72
2021/12/19 02:08:14;;;;;;;3.95;2.42;;;;;;;-0.55;80.89;95134.38;5013772;28;20291;-71
2021/12/19 02:10:42;;;;;;;2.85;2.35;;;;;;;-0.51;80.27;95146.09;5013969;28;20259;-71
2021/12/19 02:13:13;;;;;;;2.72;1.92;;;;;;;-0.52;80.28;95133.06;5013796;28;20239;-71
2021/12/19 02:15:41;;;;;;;3.13;2.20;;;;;;;-0.44;80.76;95129.97;5014069;28;20217;-71
2021/12/19 02:18:12;;;;;;;8.43;3.25;;;;;;;-0.49;80.74;95128.06;5013750;28;20615;-71
2021/12/19 02:20:44;;;;;;;3.20;2.45;;;;;;;-0.40;80.01;95125.75;5013458;28;20247;-72
2021/12/19 02:23:12;;;;;;;4.60;2.75;;;;;;;-0.22;79.88;95122.00;5012991;28;20660;-72
2021/12/19 02:25:40;;;;;;;3.10;2.00;;;;;;;-0.27;80.01;95120.06;5012814;28;20671;-72
2021/12/19 02:28:09;;;;;;;3.65;2.20;;;;;;;-0.28;80.00;95120.34;5012695;28;20526;-72
2021/12/19 02:30:36;;;;;;;5.97;3.47;;;;;;;-0.24;79.94;95121.44;5013058;28;20240;-72
2021/12/19 02:33:06;;;;;;;5.38;3.47;;;;;;;-0.31;79.87;95112.84;5013456;28;20706;-72
2021/12/19 02:35:35;;;;;;;7.25;3.78;;;;;;;-0.33;80.06;95126.41;5013329;28;20213;-71
2021/12/19 02:38:29;;;;;;;4.22;2.38;;;;;;;-0.34;79.91;95121.31;5013063;28;20720;-73
2021/12/19 02:49:23;;;;;;;4.55;3.33;;;;;;;-0.16;80.34;95115.69;5013996;28;20208;-72
2021/12/19 02:51:52;;;;;;;4.95;2.60;;;;;;;-0.21;80.77;95108.44;5012829;28;20216;-72
2021/12/19 02:54:20;;;;;;;4.32;2.17;;;;;;;-0.19;80.67;95122.31;5012693;28;20219;-72
2021/12/19 02:56:48;;;;;;;4.60;3.28;;;;;;;-0.17;81.01;95114.09;5012763;28;20259;-71
2021/12/19 02:59:15;;;;;;;3.30;2.47;;;;;;;-0.07;80.83;95109.66;5012746;28;20861;-72
2021/12/19 03:01:45;;;;;;;4.55;2.65;;;;;;;-0.20;80.46;95102.06;5012180;28;20625;-71
2021/12/19 03:04:12;;;;;;;4.10;2.78;;;;;;;-0.27;80.71;95104.09;5012648;28;20205;-72
2021/12/19 03:06:44;;;;;;;3.90;2.55;;;;;;;-0.24;81.33;95092.97;5012477;28;20209;-71
2021/12/19 03:09:13;;;;;;;4.70;2.67;;;;;;;-0.36;80.44;95098.41;5013195;28;20299;-71
2021/12/19 03:12:06;;;;;;;8.82;4.13;;;;;;;-0.44;80.76;95103.38;5012207;28;20313;-71
2021/12/19 03:20:03;;;;;;;3.50;2.05;;;;;;;-0.47;81.10;95091.38;5012443;28;20216;-72
2021/12/19 03:22:31;;;;;;;3.55;2.35;;;;;;;-0.44;80.85;95100.72;5005172;28;20213;-71
2021/12/19 03:24:58;;;;;;;3.75;2.67;;;;;;;-0.51;80.49;95102.72;5012546;28;20271;-72
2021/12/19 03:27:28;;;;;;;7.22;1.73;;;;;;;-0.37;80.19;95098.66;5012482;28;20209;-71
2021/12/19 03:29:55;;;;;;;5.97;2.88;;;;;;;-0.40;80.10;95104.47;5012337;28;20212;-70
2021/12/19 03:32:24;;;;;;;2.40;1.83;;;;;;;-0.38;79.63;95099.72;5011324;28;20275;-71
2021/12/19 03:34:51;;;;;;;3.67;2.47;;;;;;;-0.39;79.53;95098.91;5012367;28;20215;-71
2021/12/19 03:37:18;;;;;;;8.40;4.20;;;;;;;-0.46;80.09;95089.50;5012253;28;20240;-72
2021/12/19 03:39:56;;;;;;;4.18;2.75;;;;;;;-0.53;79.71;95088.88;5012551;28;20216;-71
2021/12/19 03:42:26;;;;;;;4.15;2.85;;;;;;;-0.61;80.11;95092.78;5015144;28;20235;-71
2021/12/19 03:44:54;;;;;;;2.63;2.25;;;;;;;-0.65;80.88;95094.31;5021173;28;20260;-72
2021/12/19 03:47:22;;;;;;;2.78;2.47;;;;;;;-0.69;80.39;95098.53;5011638;28;20655;-71
2021/12/19 03:49:49;;;;;;;2.72;1.98;;;;;;;-0.79;80.47;95091.19;5011456;28;20614;-71
2021/12/19 03:52:17;;;;;;;4.28;2.05;;;;;;;-0.81;80.88;95087.97;5011349;28;20205;-71
2021/12/19 03:54:44;;;;;;;2.80;1.98;;;;;;;-0.91;81.14;95087.84;5021916;28;20196;-71
2021/12/19 03:57:11;;;;;;;3.53;1.95;;;;;;;-1.02;81.37;95080.78;5017668;28;20262;-71
2021/12/19 03:59:43;;;;;;;2.97;2.13;;;;;;;-0.97;81.49;95080.06;5020511;28;20213;-71
2021/12/19 04:02:11;;;;;;;2.80;1.33;;;;;;;-0.90;80.94;95068.19;5011569;28;20391;-72
2021/12/19 04:04:39;;;;;;;4.32;2.70;;;;;;;-0.96;80.82;95073.69;5011900;28;20717;-72
2021/12/19 04:07:07;;;;;;;4.78;2.67;;;;;;;-1.09;80.83;95069.50;5011503;28;20208;-71
2021/12/19 04:09:34;;;;;;;3.97;2.22;;;;;;;-1.15;81.06;95073.13;5011429;28;20281;-71
2021/12/19 04:12:01;;;;;;;6.82;2.60;;;;;;;-1.10;81.20;95066.06;5024998;28;20236;-71
2021/12/19 04:14:29;;;;;;;4.65;2.88;;;;;;;-1.19;80.76;95064.84;5011312;28;20209;-71
2021/12/19 04:16:57;;;;;;;6.28;2.50;;;;;;;-1.19;81.50;95064.03;5011454;28;20209;-71
2021/12/19 04:19:26;;;;;;;4.90;2.85;;;;;;;-1.18;80.43;95058.47;5010689;28;20205;-71
2021/12/19 04:21:53;;;;;;;3.88;2.72;;;;;;;-1.15;79.84;95060.66;5010377;28;20663;-71
2021/12/19 04:24:20;;;;;;;2.20;1.83;;;;;;;-1.05;79.48;95057.34;5009673;28;20201;-71
2021/12/19 04:26:48;;;;;;;1.58;1.17;;;;;;;-1.09;79.16;95049.03;5011147;28;20294;-71
2021/12/19 04:29:15;;;;;;;5.78;2.92;;;;;;;-1.04;79.52;95045.66;5011370;28;20263;-71
2021/12/19 04:31:42;;;;;;;7.80;2.72;;;;;;;-0.92;78.58;95056.97;5010701;28;20775;-71
2021/12/19 04:34:12;;;;;;;6.50;1.73;;;;;;;-0.82;78.66;95059.78;5009956;28;20204;-71
2021/12/19 04:36:42;;;;;;;5.13;2.33;;;;;;;-0.66;78.70;95049.34;5010979;28;20267;-71
2021/12/19 04:39:26;;;;;;;3.78;2.50;;;;;;;-0.57;78.01;95047.88;5010653;28;20655;-71
2021/12/19 04:42:13;;;;;;;3.63;2.05;;;;;;;-0.58;77.88;95048.91;5010918;28;20237;-72
2021/12/19 04:53:25;;;;;;;4.00;2.47;;;;;;;-0.52;77.35;95026.63;5008712;28;20351;-71
2021/12/19 04:56:18;;;;;;;3.15;2.40;;;;;;;-0.40;77.12;95024.63;5010530;28;20204;-71
2021/12/19 05:01:58;;;;;;;6.60;2.53;;;;;;;-0.42;77.31;95018.78;4999723;28;20295;-71
2021/12/19 05:15:28;;;;;;;4.32;2.33;;;;;;;-0.26;77.54;95033.84;5010912;28;20575;-71
2021/12/19 05:18:00;;;;;;;9.02;2.72;;;;;;;-0.21;77.45;95038.44;5010448;28;20205;-71
2021/12/19 05:20:29;;;;;;;3.58;2.53;;;;;;;-0.21;77.42;95027.78;5011011;28;20204;-71
2021/12/19 05:23:04;;;;;;;4.50;2.53;;;;;;;-0.24;77.08;95034.41;5010215;28;20211;-71
2021/12/19 05:25:32;;;;;;;3.28;1.95;;;;;;;-0.25;77.18;95038.13;5010977;28;20320;-72
2021/12/19 05:28:00;;;;;;;3.60;2.00;;;;;;;-0.22;77.25;95042.94;5010547;28;20250;-72
2021/12/19 05:30:29;;;;;;;9.45;3.00;;;;;;;-0.24;77.13;95023.75;5009856;28;20239;-71
2021/12/19 05:32:56;;;;;;;5.60;2.40;;;;;;;-0.20;77.54;95027.53;5027702;28;20208;-71
2021/12/19 05:35:32;;;;;;;4.60;2.67;;;;;;;-0.22;77.88;95021.66;5033753;28;20210;-72
2021/12/19 05:46:14;;;;;;;4.95;3.05;;;;;;;-0.12;77.96;95023.59;5034446;28;20646;-71
2021/12/19 05:48:41;;;;;;;5.82;2.35;;;;;;;-0.10;76.86;95024.97;5032563;28;20261;-71
2021/12/19 05:51:08;;;;;;;7.00;2.22;;;;;;;-0.08;77.21;95027.38;5022815;28;20294;-71
2021/12/19 05:53:37;;;;;;;6.78;2.40;;;;;;;-0.10;76.94;95014.31;5034242;28;20265;-72
2021/12/19 05:56:04;;;;;;;4.18;2.67;;;;;;;-0.12;77.66;95021.75;5033680;28;20205;-71
2021/12/19 05:58:32;;;;;;;4.53;2.35;;;;;;;-0.08;77.09;95027.38;5033955;28;20204;-71
2021/12/19 06:00:59;;;;;;;7.72;2.42;;;;;;;-0.08;76.55;95012.22;5033519;28;20196;-71
2021/12/19 06:03:26;;;;;;;4.22;2.03;;;;;;;-0.15;77.47;95010.81;5022322;28;20747;-71
2021/12/19 06:05:54;;;;;;;5.22;2.70;;;;;;;-0.14;77.10;95018.56;5033990;28;20287;-71
2021/12/19 06:08:21;;;;;;;3.22;1.95;;;;;;;-0.16;76.63;95007.34;5033226;28;20270;-71
2021/12/19 06:10:50;;;;;;;3.05;1.80;;;;;;;-0.21;77.90;95009.16;5033786;28;20281;-72
2021/12/19 06:13:17;;;;;;;5.82;2.38;;;;;;;-0.24;77.16;95005.13;5033678;28;20204;-71
2021/12/19 06:15:44;;;;;;;8.48;2.50;;;;;;;-0.17;77.45;95003.09;5022998;28;20201;-71
2021/12/19 06:18:12;;;;;;;5.10;2.53;;;;;;;-0.18;77.98;94985.50;5031876;28;20204;-72
2021/12/19 06:20:39;;;;;;;6.63;3.42;;;;;;;-0.02;76.87;94989.91;5028568;28;20256;-72
2021/12/19 06:23:08;;;;;;;3.67;2.45;;;;;;;-0.08;77.00;94990.91;5031992;28;20259;-72
2021/12/19 06:25:35;;;;;;;5.30;3.00;;;;;;;-0.09;76.79;94978.66;5033562;28;20196;-72
2021/12/19 06:28:04;;;;;;;6.18;2.88;;;;;;;-0.15;77.72;94978.88;5027504;28;20209;-72
2021/12/19 06:30:32;;;;;;;3.75;2.42;;;;;;;-0.29;77.39;94978.47;5025562;28;20271;-71
2021/12/19 06:32:59;;;;;;;6.93;3.25;;;;;;;-0.34;78.23;94975.75;5032498;28;20296;-71
2021/12/19 06:35:30;;;;;;;6.43;3.35;;;;;;;-0.35;77.50;94974.16;5026407;28;20213;-72
2021/12/19 06:37:57;;;;;;;8.65;2.85;;;;;;;-0.38;77.74;94974.63;5001051;28;20208;-71
2021/12/19 06:40:25;;;;;;;8.07;3.20;;;;;;;-0.44;77.58;94975.66;5013500;28;20241;-71
2021/12/19 06:42:53;;;;;;;4.72;2.47;;;;;;;-0.41;77.60;94970.63;5024495;28;20750;-71
2021/12/19 06:45:22;;;;;;;6.70;3.53;;;;;;;-0.40;77.29;94966.91;5026341;28;20220;-72
2021/12/19 06:47:49;;;;;;;5.43;2.85;;;;;;;-0.29;77.34;94967.84;5032530;28;20204;-73
2021/12/19 06:50:18;;;;;;;4.53;2.47;;;;;;;-0.27;76.76;94960.38;5032378;28;20288;-71
2021/12/19 06:52:47;;;;;;;7.45;4.25;;;;;;;-0.30;77.42;94970.75;5033005;28;20640;-71
2021/12/19 06:55:16;;;;;;;9.48;2.92;;;;;;;-0.23;76.38;94940.19;5031135;28;20598;-71
2021/12/19 06:57:43;;;;;;;2.95;2.25;;;;;;;-0.14;76.22;94954.66;5010778;28;20205;-71
2021/12/19 07:00:14;;;;;;;7.63;2.50;;;;;;;0.09;75.72;94955.38;5028697;28;20334;-72
2021/12/19 07:02:43;;;;;;;5.47;3.00;;;;;;;0.06;75.89;94959.34;5032127;28;20196;-73
2021/12/19 07:05:10;;;;;;;7.45;3.22;;;;;;;0.19;75.22;94968.78;5032395;28;20717;-71
2021/12/19 07:07:38;;;;;;;3.42;2.42;;;;;;;0.92;78.11;94959.94;5032609;28;20667;-70
2021/12/19 07:10:07;;;;;;;9.25;2.78;;;;;;;0.47;74.48;94954.34;5029614;28;20205;-74
2021/12/19 07:12:34;;;;;;;4.15;2.85;;;;;;;0.50;74.36;94954.63;5025739;28;20223;-71
2021/12/19 07:15:02;;;;;;;10.35;4.20;;;;;;;0.50;74.20;94948.50;5025996;28;20248;-73
2021/12/19 07:17:29;;;;;;;7.00;3.42;;;;;;;0.51;73.93;94950.09;5011958;28;20209;-73
2021/12/19 07:19:58;;;;;;;7.38;4.10;;;;;;;0.46;73.66;94953.53;5023413;28;20209;-71
2021/12/19 07:22:25;;;;;;;10.02;3.80;;;;;;;0.50;73.71;94954.63;5010900;28;20415;-72
2021/12/19 07:24:52;;;;;;;8.38;4.07;;;;;;;0.62;73.29;94941.91;5017085;28;20622;-72
2021/12/19 07:27:20;;;;;;;5.70;3.50;;;;;;;0.84;72.80;94948.94;5018494;28;20668;-72
2021/12/19 07:29:47;;;;;;;4.18;2.08;;;;;;;1.13;71.91;94926.16;5011694;28;20306;-71
2021/12/19 07:32:15;;;;;;;6.28;3.10;;;;;;;1.32;71.64;94940.66;5011633;28;20260;-71
2021/12/19 07:34:43;;;;;;;3.47;2.60;;;;;;;1.18;71.03;94934.19;5010987;28;20209;-71
2021/12/19 07:37:12;;;;;;;5.32;3.08;;;;;;;1.24;70.76;94943.00;5009028;28;20315;-71
2021/12/19 07:39:52;;;;;;;5.88;3.40;;;;;;;1.50;69.91;94933.22;5011800;28;20627;-72
2021/12/19 07:42:19;;;;;;;7.88;3.05;;;;;;;1.71;69.86;94932.19;5013768;28;20326;-71
2021/12/19 07:44:47;;;;;;;5.03;3.08;;;;;;;1.90;70.49;94925.28;5021937;28;20656;-71
2021/12/19 07:47:15;;;;;;;5.68;2.33;;;;;;;2.00;68.77;94924.50;5008378;28;20221;-71
2021/12/19 07:49:43;;;;;;;7.38;2.92;;;;;;;1.66;69.27;94940.19;5011486;28;20213;-72
2021/12/19 07:52:11;;;;;;;9.85;3.78;;;;;;;1.58;69.62;94932.72;5011428;28;20244;-71
2021/12/19 07:54:39;;;;;;;7.68;3.45;;;;;;;1.58;69.64;94938.03;5011592;28;20707;-72
2021/12/19 07:57:06;;;;;;;4.03;2.63;;;;;;;1.53;69.56;94940.69;5011504;28;20267;-71
2021/12/19 07:59:33;;;;;;;4.00;2.65;;;;;;;1.74;68.60;94937.00;5011218;28;20619;-72
2021/12/19 08:02:02;;;;;;;6.15;2.13;;;;;;;1.70;68.81;94925.25;5010991;28;20730;-70
2021/12/19 08:04:30;;;;;;;4.68;2.80;;;;;;;1.75;69.16;94920.72;5010975;28;20594;-71
2021/12/19 08:06:57;;;;;;;7.40;3.90;;;;;;;1.81;68.58;94916.19;5011666;28;20217;-71
2021/12/19 08:09:36;;;;;;;3.95;3.17;;;;;;;1.88;68.44;94900.72;5013559;28;20209;-70
2021/12/19 08:12:04;;;;;;;5.05;2.85;;;;;;;1.92;68.34;94895.63;5012284;28;20227;-71
2021/12/19 08:14:31;;;;;;;5.03;3.10;;;;;;;2.12;67.53;94888.41;5012583;28;20208;-72
2021/12/19 08:16:58;;;;;;;4.45;2.70;;;;;;;2.08;67.71;94884.66;5010767;28;20268;-73
2021/12/19 08:19:26;;;;;;;11.48;3.50;;;;;;;1.97;68.06;94883.09;5011404;28;20208;-72
2021/12/19 08:21:53;;;;;;;4.95;2.70;;;;;;;1.98;67.78;94879.34;5011008;28;20256;-74
2021/12/19 08:24:22;;;;;;;6.03;2.92;;;;;;;2.10;67.67;94881.75;5010760;28;20208;-71
2021/12/19 08:26:50;;;;;;;3.30;2.42;;;;;;;2.27;66.40;94868.09;5010903;28;20746;-75
2021/12/19 08:29:18;;;;;;;5.25;3.03;;;;;;;2.07;66.96;94861.69;5026919;28;20600;-73
2021/12/19 08:31:45;;;;;;;4.47;2.65;;;;;;;2.20;67.24;94864.88;5017701;28;20592;-74
2021/12/19 08:34:12;;;;;;;8.93;4.22;;;;;;;1.95;68.54;94863.84;5010522;28;20205;-74
2021/12/19 08:36:40;;;;;;;8.35;4.07;;;;;;;2.28;68.42;94870.50;5010285;28;20213;-71
2021/12/19 08:39:08;;;;;;;4.25;3.10;;;;;;;2.47;66.66;94860.03;5014114;28;20664;-71
2021/12/19 08:41:35;;;;;;;11.25;3.97;;;;;;;2.57;66.03;94860.03;5020096;28;20248;-71
2021/12/19 08:44:04;;;;;;;4.63;2.28;;;;;;;2.17;67.10;94860.91;5010462;28;20204;-71
2021/12/19 08:46:35;;;;;;;4.18;2.88;;;;;;;2.12;66.56;94868.91;5010417;28;20352;-72
2021/12/19 08:49:03;;;;;;;6.15;3.33;;;;;;;2.08;68.28;94868.66;5023636;28;20282;-72
2021/12/19 08:51:31;;;;;;;4.88;2.47;;;;;;;2.07;68.05;94875.06;5010443;28;20240;-72
2021/12/19 08:54:00;;;;;;;5.50;3.05;;;;;;;2.02;67.77;94869.72;5023325;28;20231;-72
2021/12/19 08:56:27;;;;;;;8.43;3.33;;;;;;;2.00;67.53;94869.19;5007480;28;20583;-78
2021/12/19 08:58:54;;;;;;;6.75;3.20;;;;;;;2.20;67.57;94859.53;5023535;28;20205;-72
2021/12/19 09:01:23;;;;;;;7.10;2.70;;;;;;;2.04;67.80;94851.56;5007201;28;20271;-73
2021/12/19 09:03:50;;;;;;;6.18;3.30;;;;;;;2.03;67.84;94860.66;5010004;28;20259;-73
2021/12/19 09:06:18;;;;;;;5.32;2.80;;;;;;;2.11;67.64;94857.44;5022374;28;20233;-74
2021/12/19 09:08:45;;;;;;;3.47;2.25;;;;;;;1.88;68.19;94859.84;5008774;28;20456;-72
2021/12/19 09:11:12;;;;;;;5.40;2.40;;;;;;;2.00;68.81;94855.03;5010293;28;20208;-72
2021/12/19 09:13:39;;;;;;;6.90;3.20;;;;;;;2.02;69.42;94856.38;5017398;28;20281;-71
2021/12/19 09:16:07;;;;;;;5.15;2.92;;;;;;;2.01;68.90;94852.09;5012798;28;20229;-72
2021/12/19 09:18:36;;;;;;;5.25;3.00;;;;;;;2.18;68.34;94845.69;5006537;28;20216;-73
2021/12/19 09:21:03;;;;;;;7.13;3.92;;;;;;;2.00;68.07;94837.13;5006932;28;20719;-73
2021/12/19 09:23:32;;;;;;;7.40;4.78;;;;;;;1.97;69.05;94851.03;5010226;28;20267;-73
2021/12/19 09:25:59;;;;;;;4.57;2.80;;;;;;;1.95;69.25;94845.16;5010534;28;20568;-72
2021/12/19 09:28:27;;;;;;;4.72;3.03;;;;;;;1.87;69.23;94840.34;5010270;28;20244;-70
2021/12/19 09:30:54;;;;;;;7.60;2.78;;;;;;;2.12;69.77;94837.66;5009871;28;20712;-70
2021/12/19 09:33:21;;;;;;;6.43;3.03;;;;;;;2.02;68.70;94827.00;5009631;28;20237;-73
2021/12/19 09:35:50;;;;;;;6.07;3.35;;;;;;;2.11;69.16;94828.03;5010604;28;20205;-72
2021/12/19 09:38:20;;;;;;;8.80;4.20;;;;;;;2.18;69.38;94827.78;5006673;28;20205;-72
2021/12/19 09:40:48;;;;;;;11.00;3.75;;;;;;;2.18;69.53;94824.31;5009823;28;20256;-72
2021/12/19 09:46:00;;;;;;;9.32;3.95;;;;;;;2.01;69.32;94809.34;4996357;28;20225;-74
2021/12/19 09:48:27;;;;;;;8.93;3.42;;;;;;;2.04;69.24;94800.81;5010314;28;20519;-73
2021/12/19 09:50:56;;;;;;;6.68;3.47;;;;;;;2.20;70.26;94800.75;5022536;28;20261;-73
2021/12/19 09:53:24;;;;;;;8.45;3.88;;;;;;;2.22;69.22;94804.75;5009697;28;20298;-71
2021/12/19 09:55:51;;;;;;;4.32;2.70;;;;;;;2.06;68.79;94789.81;5009632;28;20255;-75
2021/12/19 09:58:18;;;;;;;6.32;3.33;;;;;;;2.26;69.04;94780.97;5011397;28;20609;-72
2021/12/19 10:00:45;;;;;;;5.78;3.17;;;;;;;2.25;68.67;94763.34;5021588;28;20710;-72
2021/12/19 10:03:13;;;;;;;5.10;2.85;;;;;;;2.19;68.92;94767.13;5024188;28;20208;-73
2021/12/19 10:05:40;;;;;;;5.55;3.88;;;;;;;2.11;68.73;94760.44;5029574;28;20196;-78
2021/12/19 10:08:10;;;;;;;7.43;3.65;;;;;;;2.06;70.05;94749.75;5030042;28;20586;-73
2021/12/19 10:10:44;;;;;;;6.47;3.47;;;;;;;2.33;69.26;94757.44;5003786;28;20201;-74
2021/12/19 10:13:12;;;;;;;6.95;2.83;;;;;;;2.69;68.56;94744.72;5023629;28;20331;-71
2021/12/19 10:15:41;;;;;;;6.88;3.75;;;;;;;2.36;68.99;94730.16;5009790;28;20202;-71
2021/12/19 10:18:10;;;;;;;7.05;3.25;;;;;;;2.47;69.39;94742.41;5013810;28;20209;-71
2021/12/19 10:20:43;;;;;;;6.03;3.83;;;;;;;2.43;69.70;94736.03;5017894;28;20742;-72
2021/12/19 10:23:13;;;;;;;20.92;7.15;;;;;;;2.27;69.99;94729.13;5018204;28;20209;-71
2021/12/19 10:25:40;;;;;;;9.75;4.15;;;;;;;2.44;69.90;94732.28;5032865;28;20607;-71
2021/12/19 10:28:09;;;;;;;5.25;3.75;;;;;;;2.45;70.18;94723.19;5019673;28;20204;-71
2021/12/19 10:30:39;;;;;;;10.48;3.88;;;;;;;2.60;69.56;94722.31;5031847;28;20678;-71
2021/12/19 10:33:08;;;;;;;7.45;4.22;;;;;;;2.71;68.99;94716.66;4999407;28;20326;-71
2021/12/19 10:35:39;;;;;;;6.10;4.03;;;;;;;2.65;68.86;94700.88;5010967;28;20278;-71
2021/12/19 10:38:13;;;;;;;10.63;5.38;;;;;;;2.61;68.96;94703.31;5032769;28;20199;-72
2021/12/19 10:40:45;;;;;;;7.22;3.42;;;;;;;2.93;68.96;94702.84;5018955;28;20755;-72
2021/12/19 10:43:16;;;;;;;7.95;4.20;;;;;;;2.98;68.54;94694.00;5030939;28;20196;-69
2021/12/19 10:45:47;;;;;;;9.30;4.15;;;;;;;2.99;68.56;94690.25;5013242;28;20279;-73
2021/12/19 10:48:22;;;;;;;6.00;4.28;;;;;;;2.81;69.77;94697.84;5016766;28;20216;-71
2021/12/19 10:50:52;;;;;;;8.40;5.20;;;;;;;2.65;69.60;94691.00;5031851;28;20254;-72
2021/12/19 10:53:23;;;;;;;6.75;3.83;;;;;;;2.82;69.75;94686.09;5032732;28;20761;-72
2021/12/19 10:55:56;;;;;;;8.50;4.85;;;;;;;2.53;70.08;94689.72;5006987;28;20193;-72
2021/12/19 10:58:28;;;;;;;5.85;4.13;;;;;;;2.78;69.50;94685.03;5032616;28;20785;-72
2021/12/19 11:00:58;;;;;;;5.32;3.30;;;;;;;2.75;69.57;94674.88;5031642;28;20193;-72
2021/12/19 11:03:47;;;;;;;7.22;4.07;;;;;;;2.68;69.79;94671.72;5031989;28;20196;-73
2021/12/19 11:06:24;;;;;;;6.35;3.45;;;;;;;2.64;69.67;94670.66;5032378;28;20200;-74
2021/12/19 11:08:53;;;;;;;8.00;4.18;;;;;;;2.51;69.96;94663.25;5000084;28;20270;-72
2021/12/19 11:11:34;;;;;;;6.55;3.67;;;;;;;2.67;70.14;94656.75;5012163;28;20212;-72
2021/12/19 11:14:02;;;;;;;6.18;3.95;;;;;;;2.57;70.44;94643.47;5011476;28;20228;-71
2021/12/19 11:16:29;;;;;;;6.07;3.13;;;;;;;2.83;69.10;94649.44;5015351;28;20679;-72
2021/12/19 11:18:56;;;;;;;5.05;3.15;;;;;;;2.78;69.09;94647.59;5031266;28;20215;-73
2021/12/19 11:21:24;;;;;;;8.65;4.07;;;;;;;2.89;69.63;94647.50;5025421;28;20351;-71
2021/12/19 11:23:51;;;;;;;8.00;3.90;;;;;;;2.65;69.17;94642.06;5014744;28;20279;-73
2021/12/19 11:26:20;;;;;;;4.70;2.47;;;;;;;2.74;68.85;94635.84;5016037;28;20204;-74
2021/12/19 11:28:50;;;;;;;7.50;4.32;;;;;;;3.04;68.86;94632.13;5019794;28;20312;-71
2021/12/19 11:31:19;;;;;;;6.20;3.42;;;;;;;3.31;67.72;94634.31;5010143;28;20205;-72
2021/12/19 11:34:15;;;;;;;5.57;3.92;;;;;;;3.49;67.78;94625.59;5009175;28;20233;-72
2021/12/19 11:36:45;;;;;;;8.27;4.53;;;;;;;3.45;66.34;94624.53;4992747;28;20267;-72
2021/12/19 11:39:15;;;;;;;9.55;6.35;;;;;;;3.11;67.78;94629.16;5010081;28;20209;-74
2021/12/19 11:42:01;;;;;;;10.32;4.75;;;;;;;2.79;68.33;94601.03;5010433;28;20241;-72
2021/12/19 11:44:35;;;;;;;7.63;3.92;;;;;;;2.82;68.42;94621.88;5010520;28;20716;-73
2021/12/19 11:47:08;;;;;;;5.93;3.92;;;;;;;2.68;68.77;94604.88;5010180;28;20738;-72
2021/12/19 11:49:35;;;;;;;8.68;3.97;;;;;;;2.57;68.98;94616.72;5010274;28;20604;-73
2021/12/19 11:52:25;;;;;;;5.72;3.47;;;;;;;2.75;68.57;94593.84;5010644;28;20217;-71
2021/12/19 11:55:24;;;;;;;11.68;5.68;;;;;;;3.32;67.72;94593.09;5010363;28;20209;-72
2021/12/19 11:58:22;;;;;;;7.55;4.03;;;;;;;3.55;66.51;94597.66;5001392;28;20295;-73
2021/12/19 12:00:54;;;;;;;8.93;4.75;;;;;;;3.74;66.54;94586.22;4999827;28;20619;-71
2021/12/19 12:03:46;;;;;;;8.65;4.35;;;;;;;3.80;67.59;94577.06;4995008;28;20272;-71
2021/12/19 12:06:37;;;;;;;7.07;4.38;;;;;;;3.77;66.83;94577.63;4979419;28;20256;-70
2021/12/19 12:09:26;;;;;;;9.23;5.28;;;;;;;3.53;66.36;94586.47;4994002;28;20381;-71
2021/12/19 12:12:20;;;;;;;9.52;4.57;;;;;;;3.18;67.43;94571.53;4994018;28;20248;-70
2021/12/19 12:15:08;;;;;;;6.25;3.35;;;;;;;2.99;68.02;94561.84;4994015;28;20632;-70
2021/12/19 12:17:51;;;;;;;6.88;4.20;;;;;;;3.05;68.06;94576.75;4993964;28;20273;-72
2021/12/19 12:20:26;;;;;;;10.73;4.72;;;;;;;3.06;68.56;94570.31;4993867;28;20197;-71
2021/12/19 12:23:14;;;;;;;8.68;4.35;;;;;;;2.98;69.11;94570.94;4993891;28;20232;-71
2021/12/19 12:25:43;;;;;;;9.45;5.72;;;;;;;2.77;68.77;94552.38;4988756;28;20595;-70
2021/12/19 12:28:15;;;;;;;8.50;5.57;;;;;;;2.94;70.02;94551.16;5001197;28;20286;-70
2021/12/19 12:30:46;;;;;;;9.23;5.53;;;;;;;2.84;68.94;94539.50;5010811;28;20197;-73
2021/12/19 12:33:17;;;;;;;9.35;5.35;;;;;;;2.55;69.95;94540.53;5009228;28;20221;-72
2021/12/19 12:35:46;;;;;;;7.28;4.47;;;;;;;2.41;70.60;94540.38;5014216;28;20636;-73
2021/12/19 12:38:14;;;;;;;5.88;3.88;;;;;;;2.33;71.30;94532.94;5006966;28;20257;-72
2021/12/19 12:40:47;;;;;;;10.75;4.35;;;;;;;2.31;71.70;94529.75;5023073;28;20225;-71